sensor_id;sensor_type;location;lat;lon;timestamp;temperature;humidity
46091;DHT22;31826;53.572;10.170;2023-02-18T00:02:03;6.50;99.90
46091;DHT22;31826;53.572;10.170;2023-02-18T00:04:29;6.60;99.90
46091;DHT22;31826;53.572;10.170;2023-02-18T00:06:54;6.60;99.90
46091;DHT22;31826;53.572;10.170;2023-02-18T00:09:20;6.70;99.90
46091;DHT22;31826;53.572;10.170;2023-02-18T00:11:46;6.60;99.90
46091;DHT22;31826;53.572;10.170;2023-02-18T00:14:13;6.60;99.90
46091;DHT22;31826;53.572;10.170;2023-02-18T00:16:39;6.70;99.90
46091;DHT22;31826;53.572;10.170;2023-02-18T00:19:07;6.70;99.90
46091;DHT22;31826;53.572;10.170;2023-02-18T00:21:34;6.70;99.90
46091;DHT22;31826;53.572;10.170;2023-02-18T00:24:01;6.70;99.90
46091;DHT22;31826;53.572;10.170;2023-02-18T00:26:26;6.70;99.90
46091;DHT22;31826;53.572;10.170;2023-02-18T00:28:52;6.70;99.90
46091;DHT22;31826;53.572;10.170;2023-02-18T00:31:21;6.70;99.90
46091;DHT22;31826;53.572;10.170;2023-02-18T00:33:47;6.70;99.90
46091;DHT22;31826;53.572;10.170;2023-02-18T00:36:15;6.70;99.90
46091;DHT22;31826;53.572;10.170;2023-02-18T00:38:46;6.70;99.90
46091;DHT22;31826;53.572;10.170;2023-02-18T00:41:12;6.70;99.90
46091;DHT22;31826;53.572;10.170;2023-02-18T00:43:38;6.70;99.90
46091;DHT22;31826;53.572;10.170;2023-02-18T00:46:04;6.70;99.90
46091;DHT22;31826;53.572;10.170;2023-02-18T00:48:30;6.70;99.90
46091;DHT22;31826;53.572;10.170;2023-02-18T00:50:56;6.60;99.90
46091;DHT22;31826;53.572;10.170;2023-02-18T00:53:22;6.70;99.90
46091;DHT22;31826;53.572;10.170;2023-02-18T00:55:49;6.60;99.90
46091;DHT22;31826;53.572;10.170;2023-02-18T00:58:15;6.60;99.90
46091;DHT22;31826;53.572;10.170;2023-02-18T01:00:41;6.60;99.90
46091;DHT22;31826;53.572;10.170;2023-02-18T01:03:07;6.60;99.90
46091;DHT22;31826;53.572;10.170;2023-02-18T01:05:33;6.60;99.90
46091;DHT22;31826;53.572;10.170;2023-02-18T01:07:59;6.50;99.90
46091;DHT22;31826;53.572;10.170;2023-02-18T01:10:24;6.60;99.90
46091;DHT22;31826;53.572;10.170;2023-02-18T01:12:50;6.60;99.90
46091;DHT22;31826;53.572;10.170;2023-02-18T01:15:17;6.60;99.90
46091;DHT22;31826;53.572;10.170;2023-02-18T01:17:43;6.60;99.90
46091;DHT22;31826;53.572;10.170;2023-02-18T01:20:10;6.60;99.90
46091;DHT22;31826;53.572;10.170;2023-02-18T01:22:36;6.60;99.90
46091;DHT22;31826;53.572;10.170;2023-02-18T01:25:02;6.60;99.90
46091;DHT22;31826;53.572;10.170;2023-02-18T01:27:28;6.50;99.90
46091;DHT22;31826;53.572;10.170;2023-02-18T01:29:54;6.60;99.90
46091;DHT22;31826;53.572;10.170;2023-02-18T01:32:19;6.50;99.90
46091;DHT22;31826;53.572;10.170;2023-02-18T01:34:45;6.50;99.90
46091;DHT22;31826;53.572;10.170;2023-02-18T01:37:11;6.40;99.90
46091;DHT22;31826;53.572;10.170;2023-02-18T01:39:37;6.50;99.90
46091;DHT22;31826;53.572;10.170;2023-02-18T01:42:04;6.40;99.90
46091;DHT22;31826;53.572;10.170;2023-02-18T01:44:33;6.40;99.90
46091;DHT22;31826;53.572;10.170;2023-02-18T01:46:59;6.40;99.90
46091;DHT22;31826;53.572;10.170;2023-02-18T01:49:27;6.40;99.90
46091;DHT22;31826;53.572;10.170;2023-02-18T01:52:03;6.40;99.90
46091;DHT22;31826;53.572;10.170;2023-02-18T01:54:42;6.40;99.90
46091;DHT22;31826;53.572;10.170;2023-02-18T01:59:48;6.40;99.90
46091;DHT22;31826;53.572;10.170;2023-02-18T02:02:18;6.40;99.90
46091;DHT22;31826;53.572;10.170;2023-02-18T02:04:45;6.30;99.90
46091;DHT22;31826;53.572;10.170;2023-02-18T02:07:10;6.30;99.90
46091;DHT22;31826;53.572;10.170;2023-02-18T02:09:38;6.30;99.90
46091;DHT22;31826;53.572;10.170;2023-02-18T02:20:07;6.20;99.90
46091;DHT22;31826;53.572;10.170;2023-02-18T02:28:06;6.30;99.90
46091;DHT22;31826;53.572;10.170;2023-02-18T02:33:46;6.30;99.90
46091;DHT22;31826;53.572;10.170;2023-02-18T02:36:35;6.30;99.90
46091;DHT22;31826;53.572;10.170;2023-02-18T02:51:09;6.30;99.90
46091;DHT22;31826;53.572;10.170;2023-02-18T02:53:36;6.20;99.90
46091;DHT22;31826;53.572;10.170;2023-02-18T02:56:04;6.10;99.90
46091;DHT22;31826;53.572;10.170;2023-02-18T02:58:30;6.10;99.90
46091;DHT22;31826;53.572;10.170;2023-02-18T03:06:35;6.10;99.90
46091;DHT22;31826;53.572;10.170;2023-02-18T03:12:02;6.10;99.90
46091;DHT22;31826;53.572;10.170;2023-02-18T03:17:18;6.20;99.90
46091;DHT22;31826;53.572;10.170;2023-02-18T03:19:57;6.20;99.90
46091;DHT22;31826;53.572;10.170;2023-02-18T03:22:32;6.20;99.90
46091;DHT22;31826;53.572;10.170;2023-02-18T03:25:01;6.20;99.90
46091;DHT22;31826;53.572;10.170;2023-02-18T03:27:33;6.10;99.90
46091;DHT22;31826;53.572;10.170;2023-02-18T03:30:45;6.20;99.90
46091;DHT22;31826;53.572;10.170;2023-02-18T03:33:04;6.20;99.90
46091;DHT22;31826;53.572;10.170;2023-02-18T03:35:32;6.20;99.90
46091;DHT22;31826;53.572;10.170;2023-02-18T03:38:11;6.30;99.90
46091;DHT22;31826;53.572;10.170;2023-02-18T03:40:38;6.20;99.90
46091;DHT22;31826;53.572;10.170;2023-02-18T03:43:04;6.30;99.90
46091;DHT22;31826;53.572;10.170;2023-02-18T03:45:30;6.30;99.90
46091;DHT22;31826;53.572;10.170;2023-02-18T03:47:56;6.20;99.90
46091;DHT22;31826;53.572;10.170;2023-02-18T03:50:22;6.20;99.90
46091;DHT22;31826;53.572;10.170;2023-02-18T03:52:48;6.30;99.90
46091;DHT22;31826;53.572;10.170;2023-02-18T03:55:15;6.40;99.90
46091;DHT22;31826;53.572;10.170;2023-02-18T03:57:41;6.40;99.90
46091;DHT22;31826;53.572;10.170;2023-02-18T04:00:08;6.30;99.90
46091;DHT22;31826;53.572;10.170;2023-02-18T04:02:35;6.40;99.90
46091;DHT22;31826;53.572;10.170;2023-02-18T04:05:00;6.40;99.90
46091;DHT22;31826;53.572;10.170;2023-02-18T04:07:26;6.40;99.90
46091;DHT22;31826;53.572;10.170;2023-02-18T04:09:52;6.40;99.90
46091;DHT22;31826;53.572;10.170;2023-02-18T04:12:17;6.40;99.90
46091;DHT22;31826;53.572;10.170;2023-02-18T04:14:43;6.40;99.90
46091;DHT22;31826;53.572;10.170;2023-02-18T04:17:09;6.40;99.90
46091;DHT22;31826;53.572;10.170;2023-02-18T04:19:35;6.50;99.90
46091;DHT22;31826;53.572;10.170;2023-02-18T04:22:01;6.40;99.90
46091;DHT22;31826;53.572;10.170;2023-02-18T04:24:26;6.50;99.90
46091;DHT22;31826;53.572;10.170;2023-02-18T04:26:52;6.50;99.90
46091;DHT22;31826;53.572;10.170;2023-02-18T04:29:18;6.40;99.90
46091;DHT22;31826;53.572;10.170;2023-02-18T04:31:44;6.40;99.90
46091;DHT22;31826;53.572;10.170;2023-02-18T04:34:09;6.40;99.90
46091;DHT22;31826;53.572;10.170;2023-02-18T04:36:35;6.30;99.90
46091;DHT22;31826;53.572;10.170;2023-02-18T04:39:01;6.40;99.90
46091;DHT22;31826;53.572;10.170;2023-02-18T04:41:26;6.30;99.90
46091;DHT22;31826;53.572;10.170;2023-02-18T04:43:52;6.40;99.90
46091;DHT22;31826;53.572;10.170;2023-02-18T04:46:18;6.30;99.90
46091;DHT22;31826;53.572;10.170;2023-02-18T04:48:43;6.30;99.90
46091;DHT22;31826;53.572;10.170;2023-02-18T04:51:09;6.20;99.90
46091;DHT22;31826;53.572;10.170;2023-02-18T04:53:35;6.20;99.90
46091;DHT22;31826;53.572;10.170;2023-02-18T04:56:01;6.20;99.90
46091;DHT22;31826;53.572;10.170;2023-02-18T04:58:26;6.20;99.90
46091;DHT22;31826;53.572;10.170;2023-02-18T05:00:52;6.20;99.90
46091;DHT22;31826;53.572;10.170;2023-02-18T05:03:18;6.10;99.90
46091;DHT22;31826;53.572;10.170;2023-02-18T05:05:44;6.10;99.90
46091;DHT22;31826;53.572;10.170;2023-02-18T05:08:11;6.10;99.90
46091;DHT22;31826;53.572;10.170;2023-02-18T05:10:37;6.20;99.90
46091;DHT22;31826;53.572;10.170;2023-02-18T05:13:03;6.10;99.90
46091;DHT22;31826;53.572;10.170;2023-02-18T05:15:29;6.10;99.90
46091;DHT22;31826;53.572;10.170;2023-02-18T05:17:55;6.20;99.90
46091;DHT22;31826;53.572;10.170;2023-02-18T05:20:21;6.10;99.90
46091;DHT22;31826;53.572;10.170;2023-02-18T05:22:46;6.20;99.90
46091;DHT22;31826;53.572;10.170;2023-02-18T05:25:12;6.20;99.90
46091;DHT22;31826;53.572;10.170;2023-02-18T05:27:38;6.20;99.90
46091;DHT22;31826;53.572;10.170;2023-02-18T05:30:04;6.20;99.90
46091;DHT22;31826;53.572;10.170;2023-02-18T05:32:30;6.20;99.90
46091;DHT22;31826;53.572;10.170;2023-02-18T05:34:55;6.20;99.90
46091;DHT22;31826;53.572;10.170;2023-02-18T05:37:21;6.10;99.90
46091;DHT22;31826;53.572;10.170;2023-02-18T05:39:47;6.10;99.90
46091;DHT22;31826;53.572;10.170;2023-02-18T05:42:13;6.10;99.90
46091;DHT22;31826;53.572;10.170;2023-02-18T05:44:38;6.10;99.90
46091;DHT22;31826;53.572;10.170;2023-02-18T05:47:06;6.10;99.90
46091;DHT22;31826;53.572;10.170;2023-02-18T05:49:34;6.00;99.90
46091;DHT22;31826;53.572;10.170;2023-02-18T05:52:00;6.00;99.90
46091;DHT22;31826;53.572;10.170;2023-02-18T05:54:27;6.10;99.90
46091;DHT22;31826;53.572;10.170;2023-02-18T05:56:53;6.00;99.90
46091;DHT22;31826;53.572;10.170;2023-02-18T05:59:19;6.00;99.90
46091;DHT22;31826;53.572;10.170;2023-02-18T06:01:46;6.00;99.90
46091;DHT22;31826;53.572;10.170;2023-02-18T06:04:12;6.00;99.90
46091;DHT22;31826;53.572;10.170;2023-02-18T06:06:38;6.00;99.90
46091;DHT22;31826;53.572;10.170;2023-02-18T06:09:04;6.00;99.90
46091;DHT22;31826;53.572;10.170;2023-02-18T06:11:31;6.00;99.90
46091;DHT22;31826;53.572;10.170;2023-02-18T06:13:58;6.00;99.90
46091;DHT22;31826;53.572;10.170;2023-02-18T06:16:24;6.00;99.90
46091;DHT22;31826;53.572;10.170;2023-02-18T06:18:50;6.00;99.90
46091;DHT22;31826;53.572;10.170;2023-02-18T06:21:15;6.00;99.90
46091;DHT22;31826;53.572;10.170;2023-02-18T06:23:41;6.00;99.90
46091;DHT22;31826;53.572;10.170;2023-02-18T06:26:07;6.00;99.90
46091;DHT22;31826;53.572;10.170;2023-02-18T06:28:32;6.00;99.90
46091;DHT22;31826;53.572;10.170;2023-02-18T06:30:58;5.90;99.90
46091;DHT22;31826;53.572;10.170;2023-02-18T06:33:24;5.90;99.90
46091;DHT22;31826;53.572;10.170;2023-02-18T06:36:02;5.80;99.90
46091;DHT22;31826;53.572;10.170;2023-02-18T06:38:31;5.80;99.90
46091;DHT22;31826;53.572;10.170;2023-02-18T06:40:57;5.80;99.90
46091;DHT22;31826;53.572;10.170;2023-02-18T06:43:24;5.80;99.90
46091;DHT22;31826;53.572;10.170;2023-02-18T06:45:50;5.80;99.90
46091;DHT22;31826;53.572;10.170;2023-02-18T06:48:16;5.80;99.90
46091;DHT22;31826;53.572;10.170;2023-02-18T06:50:42;5.80;99.90
46091;DHT22;31826;53.572;10.170;2023-02-18T06:53:08;5.80;99.90
46091;DHT22;31826;53.572;10.170;2023-02-18T06:55:33;5.80;99.90
46091;DHT22;31826;53.572;10.170;2023-02-18T06:57:59;5.80;99.90
46091;DHT22;31826;53.572;10.170;2023-02-18T07:00:25;5.80;99.90
46091;DHT22;31826;53.572;10.170;2023-02-18T07:02:50;5.80;99.90
46091;DHT22;31826;53.572;10.170;2023-02-18T07:05:16;5.80;99.90
46091;DHT22;31826;53.572;10.170;2023-02-18T07:07:42;5.80;99.90
46091;DHT22;31826;53.572;10.170;2023-02-18T07:10:08;5.80;99.90
46091;DHT22;31826;53.572;10.170;2023-02-18T07:12:34;5.90;99.90
46091;DHT22;31826;53.572;10.170;2023-02-18T07:14:59;5.90;99.90
46091;DHT22;31826;53.572;10.170;2023-02-18T07:17:25;5.80;99.90
46091;DHT22;31826;53.572;10.170;2023-02-18T07:19:50;5.80;99.90
46091;DHT22;31826;53.572;10.170;2023-02-18T07:22:16;5.80;99.90
46091;DHT22;31826;53.572;10.170;2023-02-18T07:24:42;5.80;99.90
46091;DHT22;31826;53.572;10.170;2023-02-18T07:27:08;5.80;99.90
46091;DHT22;31826;53.572;10.170;2023-02-18T07:29:34;5.80;99.90
46091;DHT22;31826;53.572;10.170;2023-02-18T07:31:59;5.90;99.90
46091;DHT22;31826;53.572;10.170;2023-02-18T07:34:25;5.90;99.90
46091;DHT22;31826;53.572;10.170;2023-02-18T07:36:50;5.90;99.90
46091;DHT22;31826;53.572;10.170;2023-02-18T07:39:16;5.90;99.90
46091;DHT22;31826;53.572;10.170;2023-02-18T07:41:46;5.90;99.90
46091;DHT22;31826;53.572;10.170;2023-02-18T07:44:12;5.90;99.90
46091;DHT22;31826;53.572;10.170;2023-02-18T07:46:40;5.90;99.90
46091;DHT22;31826;53.572;10.170;2023-02-18T07:49:06;5.80;99.90
46091;DHT22;31826;53.572;10.170;2023-02-18T07:51:32;5.90;99.90
46091;DHT22;31826;53.572;10.170;2023-02-18T07:53:57;5.90;99.90
46091;DHT22;31826;53.572;10.170;2023-02-18T07:56:23;5.90;99.90
46091;DHT22;31826;53.572;10.170;2023-02-18T07:58:49;5.90;99.90
46091;DHT22;31826;53.572;10.170;2023-02-18T08:01:15;5.90;99.90
46091;DHT22;31826;53.572;10.170;2023-02-18T08:03:41;5.90;99.90
46091;DHT22;31826;53.572;10.170;2023-02-18T08:06:07;5.90;99.90
46091;DHT22;31826;53.572;10.170;2023-02-18T08:08:33;5.80;99.90
46091;DHT22;31826;53.572;10.170;2023-02-18T08:11:01;5.80;99.90
46091;DHT22;31826;53.572;10.170;2023-02-18T08:13:32;5.80;99.90
46091;DHT22;31826;53.572;10.170;2023-02-18T08:15:58;5.80;99.90
46091;DHT22;31826;53.572;10.170;2023-02-18T08:18:25;5.90;99.90
46091;DHT22;31826;53.572;10.170;2023-02-18T08:20:51;5.80;99.90
46091;DHT22;31826;53.572;10.170;2023-02-18T08:23:21;5.90;99.90
46091;DHT22;31826;53.572;10.170;2023-02-18T08:25:51;5.80;99.90
46091;DHT22;31826;53.572;10.170;2023-02-18T08:28:18;5.90;99.90
46091;DHT22;31826;53.572;10.170;2023-02-18T08:30:51;5.90;99.90
46091;DHT22;31826;53.572;10.170;2023-02-18T08:33:17;5.90;99.90
46091;DHT22;31826;53.572;10.170;2023-02-18T08:35:44;6.00;99.90
46091;DHT22;31826;53.572;10.170;2023-02-18T08:38:11;5.90;99.90
46091;DHT22;31826;53.572;10.170;2023-02-18T08:40:36;5.90;99.90
46091;DHT22;31826;53.572;10.170;2023-02-18T08:43:02;6.00;99.90
46091;DHT22;31826;53.572;10.170;2023-02-18T08:45:28;6.00;99.90
46091;DHT22;31826;53.572;10.170;2023-02-18T08:47:54;6.00;99.90
46091;DHT22;31826;53.572;10.170;2023-02-18T08:50:20;6.00;99.90
46091;DHT22;31826;53.572;10.170;2023-02-18T08:52:53;6.00;99.90
46091;DHT22;31826;53.572;10.170;2023-02-18T08:55:19;6.00;99.90
46091;DHT22;31826;53.572;10.170;2023-02-18T08:57:46;5.90;99.90
46091;DHT22;31826;53.572;10.170;2023-02-18T09:00:14;5.90;99.90
46091;DHT22;31826;53.572;10.170;2023-02-18T09:02:40;5.90;99.90
46091;DHT22;31826;53.572;10.170;2023-02-18T09:05:06;5.80;99.90
46091;DHT22;31826;53.572;10.170;2023-02-18T09:07:34;5.80;99.90
46091;DHT22;31826;53.572;10.170;2023-02-18T09:10:00;5.80;99.90
46091;DHT22;31826;53.572;10.170;2023-02-18T09:12:26;5.80;99.90
46091;DHT22;31826;53.572;10.170;2023-02-18T09:14:52;5.80;99.90
46091;DHT22;31826;53.572;10.170;2023-02-18T09:17:18;5.80;99.90
46091;DHT22;31826;53.572;10.170;2023-02-18T09:19:43;5.60;99.90
46091;DHT22;31826;53.572;10.170;2023-02-18T09:22:09;5.70;99.90
46091;DHT22;31826;53.572;10.170;2023-02-18T09:24:40;5.60;99.90
46091;DHT22;31826;53.572;10.170;2023-02-18T09:27:06;5.70;99.90
46091;DHT22;31826;53.572;10.170;2023-02-18T09:29:33;5.70;99.90
46091;DHT22;31826;53.572;10.170;2023-02-18T09:32:02;5.70;99.90
46091;DHT22;31826;53.572;10.170;2023-02-18T09:34:28;5.70;99.90
46091;DHT22;31826;53.572;10.170;2023-02-18T09:36:54;5.70;99.90
46091;DHT22;31826;53.572;10.170;2023-02-18T09:39:20;5.70;99.90
46091;DHT22;31826;53.572;10.170;2023-02-18T09:41:57;5.70;99.90
46091;DHT22;31826;53.572;10.170;2023-02-18T09:44:34;5.70;99.90
46091;DHT22;31826;53.572;10.170;2023-02-18T09:49:57;5.80;99.90
46091;DHT22;31826;53.572;10.170;2023-02-18T09:52:30;5.90;99.90
46091;DHT22;31826;53.572;10.170;2023-02-18T09:54:56;5.90;99.90
46091;DHT22;31826;53.572;10.170;2023-02-18T10:00:05;6.00;99.90
46091;DHT22;31826;53.572;10.170;2023-02-18T10:02:32;6.00;99.90
46091;DHT22;31826;53.572;10.170;2023-02-18T10:04:58;6.00;99.90
46091;DHT22;31826;53.572;10.170;2023-02-18T10:07:27;6.00;99.90
46091;DHT22;31826;53.572;10.170;2023-02-18T10:09:56;6.00;99.90
46091;DHT22;31826;53.572;10.170;2023-02-18T10:12:25;6.10;99.90
46091;DHT22;31826;53.572;10.170;2023-02-18T10:14:57;6.10;99.90
46091;DHT22;31826;53.572;10.170;2023-02-18T10:17:27;6.10;99.90
46091;DHT22;31826;53.572;10.170;2023-02-18T10:19:55;6.20;99.90
46091;DHT22;31826;53.572;10.170;2023-02-18T10:22:23;6.20;99.90
46091;DHT22;31826;53.572;10.170;2023-02-18T10:24:56;6.20;99.90
46091;DHT22;31826;53.572;10.170;2023-02-18T10:27:41;6.20;99.90
46091;DHT22;31826;53.572;10.170;2023-02-18T10:30:33;6.20;99.90
46091;DHT22;31826;53.572;10.170;2023-02-18T10:33:21;6.30;99.90
46091;DHT22;31826;53.572;10.170;2023-02-18T10:36:52;6.30;99.90
46091;DHT22;31826;53.572;10.170;2023-02-18T10:47:41;6.30;99.90
46091;DHT22;31826;53.572;10.170;2023-02-18T10:50:41;6.30;99.90
46091;DHT22;31826;53.572;10.170;2023-02-18T10:53:26;6.40;99.90
46091;DHT22;31826;53.572;10.170;2023-02-18T10:55:54;6.40;99.90
46091;DHT22;31826;53.572;10.170;2023-02-18T11:00:50;6.40;99.90
46091;DHT22;31826;53.572;10.170;2023-02-18T11:03:19;6.50;99.90
46091;DHT22;31826;53.572;10.170;2023-02-18T11:05:50;6.50;99.90
46091;DHT22;31826;53.572;10.170;2023-02-18T11:08:24;6.60;99.90
46091;DHT22;31826;53.572;10.170;2023-02-18T11:10:52;6.60;99.90
46091;DHT22;31826;53.572;10.170;2023-02-18T11:13:28;6.60;99.90
46091;DHT22;31826;53.572;10.170;2023-02-18T11:15:59;6.60;99.90
46091;DHT22;31826;53.572;10.170;2023-02-18T11:21:00;6.80;99.90
46091;DHT22;31826;53.572;10.170;2023-02-18T11:23:26;6.80;99.90
46091;DHT22;31826;53.572;10.170;2023-02-18T11:26:06;6.80;99.90
46091;DHT22;31826;53.572;10.170;2023-02-18T11:28:45;6.90;99.90
46091;DHT22;31826;53.572;10.170;2023-02-18T11:31:21;6.90;99.90
46091;DHT22;31826;53.572;10.170;2023-02-18T11:33:56;6.90;99.90
46091;DHT22;31826;53.572;10.170;2023-02-18T11:36:30;6.90;99.90
46091;DHT22;31826;53.572;10.170;2023-02-18T11:39:01;7.00;99.90
46091;DHT22;31826;53.572;10.170;2023-02-18T11:41:37;7.00;99.90
46091;DHT22;31826;53.572;10.170;2023-02-18T11:44:07;7.10;99.90
46091;DHT22;31826;53.572;10.170;2023-02-18T11:46:56;7.10;99.90
46091;DHT22;31826;53.572;10.170;2023-02-18T11:49:23;7.20;99.90
46091;DHT22;31826;53.572;10.170;2023-02-18T11:51:49;7.20;99.90
46091;DHT22;31826;53.572;10.170;2023-02-18T11:54:26;7.20;99.90
46091;DHT22;31826;53.572;10.170;2023-02-18T11:57:08;7.20;99.90
46091;DHT22;31826;53.572;10.170;2023-02-18T11:59:37;7.30;99.90
46091;DHT22;31826;53.572;10.170;2023-02-18T12:04:51;7.70;99.90
46091;DHT22;31826;53.572;10.170;2023-02-18T12:07:31;7.80;99.90
46091;DHT22;31826;53.572;10.170;2023-02-18T12:10:03;8.00;99.90
46091;DHT22;31826;53.572;10.170;2023-02-18T12:12:44;8.10;99.90
46091;DHT22;31826;53.572;10.170;2023-02-18T12:15:17;8.20;99.90
46091;DHT22;31826;53.572;10.170;2023-02-18T12:26:22;8.90;99.90
46091;DHT22;31826;53.572;10.170;2023-02-18T12:34:25;8.90;99.90
46091;DHT22;31826;53.572;10.170;2023-02-18T12:37:01;9.00;99.90
46091;DHT22;31826;53.572;10.170;2023-02-18T12:39:48;9.00;99.90
46091;DHT22;31826;53.572;10.170;2023-02-18T12:53:19;9.00;99.90
46091;DHT22;31826;53.572;10.170;2023-02-18T12:59:02;9.00;99.90
46091;DHT22;31826;53.572;10.170;2023-02-18T13:13:18;8.90;99.90
46091;DHT22;31826;53.572;10.170;2023-02-18T13:15:57;9.00;99.90
46091;DHT22;31826;53.572;10.170;2023-02-18T13:18:31;8.90;99.90
46091;DHT22;31826;53.572;10.170;2023-02-18T13:21:19;9.00;99.90
46091;DHT22;31826;53.572;10.170;2023-02-18T13:23:52;8.90;99.90
46091;DHT22;31826;53.572;10.170;2023-02-18T13:26:20;8.90;99.90
46091;DHT22;31826;53.572;10.170;2023-02-18T13:35:07;8.80;99.90
46091;DHT22;31826;53.572;10.170;2023-02-18T13:38:01;8.80;99.90
46091;DHT22;31826;53.572;10.170;2023-02-18T13:40:31;8.80;99.90
46091;DHT22;31826;53.572;10.170;2023-02-18T13:43:17;8.70;99.90
46091;DHT22;31826;53.572;10.170;2023-02-18T13:45:43;8.70;99.90
46091;DHT22;31826;53.572;10.170;2023-02-18T13:48:27;8.70;99.90
46091;DHT22;31826;53.572;10.170;2023-02-18T13:51:02;8.70;99.90
46091;DHT22;31826;53.572;10.170;2023-02-18T13:53:31;8.70;99.90
46091;DHT22;31826;53.572;10.170;2023-02-18T13:56:21;8.70;99.90
46091;DHT22;31826;53.572;10.170;2023-02-18T13:58:53;8.70;99.90
46091;DHT22;31826;53.572;10.170;2023-02-18T14:06:32;8.60;99.90
46091;DHT22;31826;53.572;10.170;2023-02-18T14:19:52;8.10;99.90
46091;DHT22;31826;53.572;10.170;2023-02-18T14:27:37;7.70;99.90
46091;DHT22;31826;53.572;10.170;2023-02-18T14:30:07;7.70;99.90
46091;DHT22;31826;53.572;10.170;2023-02-18T14:32:40;7.60;99.90
46091;DHT22;31826;53.572;10.170;2023-02-18T14:35:39;7.50;99.90
46091;DHT22;31826;53.572;10.170;2023-02-18T14:38:25;7.50;99.90
46091;DHT22;31826;53.572;10.170;2023-02-18T14:49:38;7.40;99.90
46091;DHT22;31826;53.572;10.170;2023-02-18T14:52:12;7.40;99.90
46091;DHT22;31826;53.572;10.170;2023-02-18T14:54:40;7.30;99.90
46091;DHT22;31826;53.572;10.170;2023-02-18T14:57:15;7.40;99.90
46091;DHT22;31826;53.572;10.170;2023-02-18T14:59:42;7.30;99.90
46091;DHT22;31826;53.572;10.170;2023-02-18T15:02:20;7.20;99.90
46091;DHT22;31826;53.572;10.170;2023-02-18T15:04:47;7.20;99.90
46091;DHT22;31826;53.572;10.170;2023-02-18T15:07:20;7.20;99.90
46091;DHT22;31826;53.572;10.170;2023-02-18T15:09:53;7.10;99.90
46091;DHT22;31826;53.572;10.170;2023-02-18T15:12:21;7.00;99.90
46091;DHT22;31826;53.572;10.170;2023-02-18T15:14:50;6.90;99.90
46091;DHT22;31826;53.572;10.170;2023-02-18T15:17:19;6.90;99.90
46091;DHT22;31826;53.572;10.170;2023-02-18T15:19:57;6.90;99.90
46091;DHT22;31826;53.572;10.170;2023-02-18T15:22:26;6.90;99.90
46091;DHT22;31826;53.572;10.170;2023-02-18T15:24:55;7.00;99.90
46091;DHT22;31826;53.572;10.170;2023-02-18T15:27:30;7.00;99.90
46091;DHT22;31826;53.572;10.170;2023-02-18T15:30:17;7.00;99.90
46091;DHT22;31826;53.572;10.170;2023-02-18T15:32:51;7.00;99.90
46091;DHT22;31826;53.572;10.170;2023-02-18T15:35:19;7.00;99.90
46091;DHT22;31826;53.572;10.170;2023-02-18T15:37:51;6.90;99.90
46091;DHT22;31826;53.572;10.170;2023-02-18T15:40:18;6.90;99.90
46091;DHT22;31826;53.572;10.170;2023-02-18T15:42:50;6.70;99.90
46091;DHT22;31826;53.572;10.170;2023-02-18T15:45:19;6.80;99.90
46091;DHT22;31826;53.572;10.170;2023-02-18T15:47:51;6.70;99.90
46091;DHT22;31826;53.572;10.170;2023-02-18T15:50:25;6.70;99.90
46091;DHT22;31826;53.572;10.170;2023-02-18T15:52:54;6.70;99.90
46091;DHT22;31826;53.572;10.170;2023-02-18T15:55:32;6.70;99.90
46091;DHT22;31826;53.572;10.170;2023-02-18T15:58:03;6.70;99.90
46091;DHT22;31826;53.572;10.170;2023-02-18T16:00:36;6.60;99.90
46091;DHT22;31826;53.572;10.170;2023-02-18T16:03:15;6.60;99.90
46091;DHT22;31826;53.572;10.170;2023-02-18T16:05:42;6.50;99.90
46091;DHT22;31826;53.572;10.170;2023-02-18T16:08:25;6.40;99.90
46091;DHT22;31826;53.572;10.170;2023-02-18T16:10:56;6.40;99.90
46091;DHT22;31826;53.572;10.170;2023-02-18T16:13:24;6.30;99.90
46091;DHT22;31826;53.572;10.170;2023-02-18T16:15:51;6.30;99.90
46091;DHT22;31826;53.572;10.170;2023-02-18T16:18:38;6.30;99.90
46091;DHT22;31826;53.572;10.170;2023-02-18T16:21:29;6.20;99.90
46091;DHT22;31826;53.572;10.170;2023-02-18T16:23:58;6.30;99.90
46091;DHT22;31826;53.572;10.170;2023-02-18T16:26:30;6.30;99.90
46091;DHT22;31826;53.572;10.170;2023-02-18T16:29:20;6.30;99.90
46091;DHT22;31826;53.572;10.170;2023-02-18T16:31:46;6.30;99.90
46091;DHT22;31826;53.572;10.170;2023-02-18T16:34:12;6.30;99.90
46091;DHT22;31826;53.572;10.170;2023-02-18T16:36:38;6.30;99.90
46091;DHT22;31826;53.572;10.170;2023-02-18T16:39:24;6.30;99.90
46091;DHT22;31826;53.572;10.170;2023-02-18T16:41:49;6.20;99.90
46091;DHT22;31826;53.572;10.170;2023-02-18T16:44:15;6.20;99.90
46091;DHT22;31826;53.572;10.170;2023-02-18T16:46:41;6.20;99.90
46091;DHT22;31826;53.572;10.170;2023-02-18T16:49:11;6.20;99.90
46091;DHT22;31826;53.572;10.170;2023-02-18T16:51:37;6.20;99.90
46091;DHT22;31826;53.572;10.170;2023-02-18T16:54:03;6.10;99.90
46091;DHT22;31826;53.572;10.170;2023-02-18T16:56:31;6.00;99.90
46091;DHT22;31826;53.572;10.170;2023-02-18T16:58:58;5.90;99.90
46091;DHT22;31826;53.572;10.170;2023-02-18T17:03:53;5.90;99.90
46091;DHT22;31826;53.572;10.170;2023-02-18T17:06:20;5.70;99.90
46091;DHT22;31826;53.572;10.170;2023-02-18T17:08:46;5.80;99.90
46091;DHT22;31826;53.572;10.170;2023-02-18T17:11:35;5.80;99.90
46091;DHT22;31826;53.572;10.170;2023-02-18T17:14:01;5.80;99.90
46091;DHT22;31826;53.572;10.170;2023-02-18T17:16:29;5.80;99.90
46091;DHT22;31826;53.572;10.170;2023-02-18T17:18:55;5.80;99.90
46091;DHT22;31826;53.572;10.170;2023-02-18T17:21:23;5.70;99.90
46091;DHT22;31826;53.572;10.170;2023-02-18T17:23:49;5.70;99.90
46091;DHT22;31826;53.572;10.170;2023-02-18T17:26:26;5.70;99.90
46091;DHT22;31826;53.572;10.170;2023-02-18T17:28:53;5.60;99.90
46091;DHT22;31826;53.572;10.170;2023-02-18T17:31:28;5.60;99.90
46091;DHT22;31826;53.572;10.170;2023-02-18T17:33:58;5.60;99.90
46091;DHT22;31826;53.572;10.170;2023-02-18T17:36:24;5.60;99.90
46091;DHT22;31826;53.572;10.170;2023-02-18T17:38:50;5.60;99.90
46091;DHT22;31826;53.572;10.170;2023-02-18T17:41:16;5.50;99.90
46091;DHT22;31826;53.572;10.170;2023-02-18T17:43:42;5.50;99.90
46091;DHT22;31826;53.572;10.170;2023-02-18T17:46:12;5.50;99.90
46091;DHT22;31826;53.572;10.170;2023-02-18T17:48:39;5.50;99.90
46091;DHT22;31826;53.572;10.170;2023-02-18T17:51:05;5.50;99.90
46091;DHT22;31826;53.572;10.170;2023-02-18T17:53:33;5.60;99.90
46091;DHT22;31826;53.572;10.170;2023-02-18T17:55:58;5.60;99.90
46091;DHT22;31826;53.572;10.170;2023-02-18T17:58:24;5.50;99.90
46091;DHT22;31826;53.572;10.170;2023-02-18T18:00:55;5.60;99.90
46091;DHT22;31826;53.572;10.170;2023-02-18T18:03:22;5.50;99.90
46091;DHT22;31826;53.572;10.170;2023-02-18T18:05:50;5.60;99.90
46091;DHT22;31826;53.572;10.170;2023-02-18T18:08:17;5.60;99.90